sensor_id;sensor_type;location;lat;lon;timestamp;P1;durP1;ratioP1;P2;durP2;ratioP2
23206;SDS011;11773;52.570;13.052;2023-04-24T00:01:45;1.20;;;1.10;;
23206;SDS011;11773;52.570;13.052;2023-04-24T00:04:15;1.30;;;1.20;;
23206;SDS011;11773;52.570;13.052;2023-04-24T00:06:45;1.57;;;1.47;;
23206;SDS011;11773;52.570;13.052;2023-04-24T00:09:16;1.60;;;1.50;;
23206;SDS011;11773;52.570;13.052;2023-04-24T00:11:46;1.57;;;1.47;;
23206;SDS011;11773;52.570;13.052;2023-04-24T00:14:15;1.40;;;1.30;;
23206;SDS011;11773;52.570;13.052;2023-04-24T00:16:45;1.03;;;1.03;;
23206;SDS011;11773;52.570;13.052;2023-04-24T00:19:14;1.10;;;1.00;;
23206;SDS011;11773;52.570;13.052;2023-04-24T00:21:46;1.27;;;1.17;;
23206;SDS011;11773;52.570;13.052;2023-04-24T00:24:18;1.77;;;1.03;;
23206;SDS011;11773;52.570;13.052;2023-04-24T00:26:48;1.40;;;1.33;;
23206;SDS011;11773;52.570;13.052;2023-04-24T00:29:18;1.20;;;1.10;;
23206;SDS011;11773;52.570;13.052;2023-04-24T00:31:47;1.40;;;1.30;;
23206;SDS011;11773;52.570;13.052;2023-04-24T00:34:17;1.47;;;1.37;;
23206;SDS011;11773;52.570;13.052;2023-04-24T00:36:47;1.17;;;1.17;;
23206;SDS011;11773;52.570;13.052;2023-04-24T00:39:18;1.13;;;1.00;;
23206;SDS011;11773;52.570;13.052;2023-04-24T00:41:48;0.90;;;0.90;;
23206;SDS011;11773;52.570;13.052;2023-04-24T00:44:19;1.50;;;1.40;;
23206;SDS011;11773;52.570;13.052;2023-04-24T00:46:49;3.87;;;1.20;;
23206;SDS011;11773;52.570;13.052;2023-04-24T00:49:21;0.83;;;0.83;;
23206;SDS011;11773;52.570;13.052;2023-04-24T00:51:51;1.77;;;1.20;;
23206;SDS011;11773;52.570;13.052;2023-04-24T00:54:20;1.30;;;1.20;;
23206;SDS011;11773;52.570;13.052;2023-04-24T00:56:50;1.43;;;1.33;;
23206;SDS011;11773;52.570;13.052;2023-04-24T00:59:19;0.90;;;0.90;;
23206;SDS011;11773;52.570;13.052;2023-04-24T01:01:49;0.87;;;0.87;;
23206;SDS011;11773;52.570;13.052;2023-04-24T01:04:19;0.87;;;0.87;;
23206;SDS011;11773;52.570;13.052;2023-04-24T01:06:49;0.80;;;0.80;;
23206;SDS011;11773;52.570;13.052;2023-04-24T01:09:20;0.90;;;0.90;;
23206;SDS011;11773;52.570;13.052;2023-04-24T01:11:52;0.80;;;0.80;;
23206;SDS011;11773;52.570;13.052;2023-04-24T01:14:23;1.00;;;1.00;;
23206;SDS011;11773;52.570;13.052;2023-04-24T01:16:53;1.03;;;0.97;;
23206;SDS011;11773;52.570;13.052;2023-04-24T01:19:24;1.67;;;1.57;;
23206;SDS011;11773;52.570;13.052;2023-04-24T01:21:54;1.63;;;1.53;;
23206;SDS011;11773;52.570;13.052;2023-04-24T01:24:26;1.17;;;1.07;;
23206;SDS011;11773;52.570;13.052;2023-04-24T01:26:57;1.60;;;1.50;;
23206;SDS011;11773;52.570;13.052;2023-04-24T01:29:27;2.13;;;1.93;;
23206;SDS011;11773;52.570;13.052;2023-04-24T01:31:57;1.70;;;1.60;;
23206;SDS011;11773;52.570;13.052;2023-04-24T01:34:27;2.13;;;1.67;;
23206;SDS011;11773;52.570;13.052;2023-04-24T01:36:57;1.20;;;1.20;;
23206;SDS011;11773;52.570;13.052;2023-04-24T01:39:27;1.70;;;1.60;;
23206;SDS011;11773;52.570;13.052;2023-04-24T01:41:57;1.77;;;1.67;;
23206;SDS011;11773;52.570;13.052;2023-04-24T01:44:29;1.60;;;1.50;;
23206;SDS011;11773;52.570;13.052;2023-04-24T01:47:01;2.00;;;1.80;;
23206;SDS011;11773;52.570;13.052;2023-04-24T01:49:30;1.80;;;1.70;;
23206;SDS011;11773;52.570;13.052;2023-04-24T01:52:01;1.17;;;1.17;;
23206;SDS011;11773;52.570;13.052;2023-04-24T01:54:30;0.90;;;0.90;;
23206;SDS011;11773;52.570;13.052;2023-04-24T01:57:00;0.90;;;0.90;;
23206;SDS011;11773;52.570;13.052;2023-04-24T01:59:29;1.20;;;1.10;;
23206;SDS011;11773;52.570;13.052;2023-04-24T02:02:01;1.07;;;0.97;;
23206;SDS011;11773;52.570;13.052;2023-04-24T02:04:31;1.40;;;1.30;;
23206;SDS011;11773;52.570;13.052;2023-04-24T02:07:01;1.40;;;1.30;;
23206;SDS011;11773;52.570;13.052;2023-04-24T02:09:30;1.10;;;1.10;;
23206;SDS011;11773;52.570;13.052;2023-04-24T02:12:00;1.27;;;1.17;;
23206;SDS011;11773;52.570;13.052;2023-04-24T02:14:29;1.00;;;1.00;;
23206;SDS011;11773;52.570;13.052;2023-04-24T02:16:59;0.90;;;0.90;;
23206;SDS011;11773;52.570;13.052;2023-04-24T02:19:28;0.73;;;0.73;;
23206;SDS011;11773;52.570;13.052;2023-04-24T02:21:58;0.53;;;0.53;;
23206;SDS011;11773;52.570;13.052;2023-04-24T02:24:28;1.27;;;1.17;;
23206;SDS011;11773;52.570;13.052;2023-04-24T02:26:57;0.87;;;0.87;;
23206;SDS011;11773;52.570;13.052;2023-04-24T02:29:27;0.70;;;0.70;;
23206;SDS011;11773;52.570;13.052;2023-04-24T02:31:57;0.93;;;0.93;;
23206;SDS011;11773;52.570;13.052;2023-04-24T02:34:27;0.83;;;0.83;;
23206;SDS011;11773;52.570;13.052;2023-04-24T02:36:56;1.03;;;1.03;;
23206;SDS011;11773;52.570;13.052;2023-04-24T02:39:26;1.00;;;1.00;;
23206;SDS011;11773;52.570;13.052;2023-04-24T02:41:55;0.90;;;0.90;;
23206;SDS011;11773;52.570;13.052;2023-04-24T02:44:25;0.70;;;0.70;;
23206;SDS011;11773;52.570;13.052;2023-04-24T02:46:54;0.60;;;0.60;;
23206;SDS011;11773;52.570;13.052;2023-04-24T02:49:24;0.77;;;0.77;;
23206;SDS011;11773;52.570;13.052;2023-04-24T02:51:54;0.90;;;0.90;;
23206;SDS011;11773;52.570;13.052;2023-04-24T02:54:23;0.90;;;0.90;;
23206;SDS011;11773;52.570;13.052;2023-04-24T02:56:53;1.27;;;1.17;;
23206;SDS011;11773;52.570;13.052;2023-04-24T02:59:23;0.77;;;0.77;;
23206;SDS011;11773;52.570;13.052;2023-04-24T03:01:54;1.37;;;1.17;;
23206;SDS011;11773;52.570;13.052;2023-04-24T03:04:23;1.03;;;1.00;;
23206;SDS011;11773;52.570;13.052;2023-04-24T03:06:53;1.37;;;0.93;;
23206;SDS011;11773;52.570;13.052;2023-04-24T03:09:23;1.10;;;1.00;;
23206;SDS011;11773;52.570;13.052;2023-04-24T03:11:53;1.23;;;1.13;;
23206;SDS011;11773;52.570;13.052;2023-04-24T03:14:23;1.60;;;1.50;;
23206;SDS011;11773;52.570;13.052;2023-04-24T03:16:52;1.60;;;1.50;;
23206;SDS011;11773;52.570;13.052;2023-04-24T03:19:22;1.70;;;1.60;;
23206;SDS011;11773;52.570;13.052;2023-04-24T03:21:52;1.27;;;1.27;;
23206;SDS011;11773;52.570;13.052;2023-04-24T03:24:21;1.70;;;1.60;;
23206;SDS011;11773;52.570;13.052;2023-04-24T03:26:51;1.50;;;1.40;;
23206;SDS011;11773;52.570;13.052;2023-04-24T03:29:20;1.20;;;1.10;;
23206;SDS011;11773;52.570;13.052;2023-04-24T03:31:50;1.33;;;1.23;;
23206;SDS011;11773;52.570;13.052;2023-04-24T03:34:19;1.70;;;1.60;;
23206;SDS011;11773;52.570;13.052;2023-04-24T03:36:49;1.80;;;1.70;;
23206;SDS011;11773;52.570;13.052;2023-04-24T03:39:19;1.40;;;1.30;;
23206;SDS011;11773;52.570;13.052;2023-04-24T03:41:49;1.17;;;1.17;;
23206;SDS011;11773;52.570;13.052;2023-04-24T03:44:18;0.80;;;0.80;;
23206;SDS011;11773;52.570;13.052;2023-04-24T03:46:48;1.00;;;1.00;;
23206;SDS011;11773;52.570;13.052;2023-04-24T03:49:17;0.93;;;0.93;;
23206;SDS011;11773;52.570;13.052;2023-04-24T03:51:47;1.17;;;0.97;;
23206;SDS011;11773;52.570;13.052;2023-04-24T03:54:17;0.80;;;0.80;;
23206;SDS011;11773;52.570;13.052;2023-04-24T03:56:47;1.17;;;1.07;;
23206;SDS011;11773;52.570;13.052;2023-04-24T03:59:17;1.20;;;1.10;;
23206;SDS011;11773;52.570;13.052;2023-04-24T04:01:48;0.90;;;0.90;;
23206;SDS011;11773;52.570;13.052;2023-04-24T04:04:17;0.93;;;0.77;;
23206;SDS011;11773;52.570;13.052;2023-04-24T04:06:47;1.43;;;1.33;;
23206;SDS011;11773;52.570;13.052;2023-04-24T04:09:16;0.90;;;0.90;;
23206;SDS011;11773;52.570;13.052;2023-04-24T04:11:46;0.80;;;0.80;;
23206;SDS011;11773;52.570;13.052;2023-04-24T04:14:16;0.97;;;0.97;;
23206;SDS011;11773;52.570;13.052;2023-04-24T04:16:45;0.70;;;0.70;;
23206;SDS011;11773;52.570;13.052;2023-04-24T04:19:15;0.77;;;0.77;;
23206;SDS011;11773;52.570;13.052;2023-04-24T04:21:44;0.80;;;0.80;;
23206;SDS011;11773;52.570;13.052;2023-04-24T04:24:15;0.80;;;0.80;;
23206;SDS011;11773;52.570;13.052;2023-04-24T04:26:45;0.87;;;0.87;;
23206;SDS011;11773;52.570;13.052;2023-04-24T04:29:17;1.17;;;1.07;;
23206;SDS011;11773;52.570;13.052;2023-04-24T04:31:47;0.80;;;0.80;;
23206;SDS011;11773;52.570;13.052;2023-04-24T04:34:16;0.90;;;0.90;;
23206;SDS011;11773;52.570;13.052;2023-04-24T04:36:46;0.70;;;0.70;;
23206;SDS011;11773;52.570;13.052;2023-04-24T04:39:16;0.77;;;0.77;;
23206;SDS011;11773;52.570;13.052;2023-04-24T04:41:46;0.90;;;0.90;;
23206;SDS011;11773;52.570;13.052;2023-04-24T04:44:16;0.60;;;0.60;;
23206;SDS011;11773;52.570;13.052;2023-04-24T04:46:46;0.90;;;0.90;;
23206;SDS011;11773;52.570;13.052;2023-04-24T04:49:15;0.70;;;0.70;;
23206;SDS011;11773;52.570;13.052;2023-04-24T04:51:45;0.87;;;0.87;;
23206;SDS011;11773;52.570;13.052;2023-04-24T04:54:15;0.83;;;0.83;;
23206;SDS011;11773;52.570;13.052;2023-04-24T04:56:44;0.70;;;0.70;;
23206;SDS011;11773;52.570;13.052;2023-04-24T04:59:14;0.60;;;0.60;;
23206;SDS011;11773;52.570;13.052;2023-04-24T05:01:44;0.77;;;0.77;;
23206;SDS011;11773;52.570;13.052;2023-04-24T05:04:13;0.90;;;0.90;;
23206;SDS011;11773;52.570;13.052;2023-04-24T05:06:43;0.60;;;0.60;;
23206;SDS011;11773;52.570;13.052;2023-04-24T05:09:14;0.60;;;0.60;;
23206;SDS011;11773;52.570;13.052;2023-04-24T05:11:43;0.67;;;0.67;;
23206;SDS011;11773;52.570;13.052;2023-04-24T05:14:13;0.57;;;0.57;;
23206;SDS011;11773;52.570;13.052;2023-04-24T05:16:44;0.60;;;0.60;;
23206;SDS011;11773;52.570;13.052;2023-04-24T05:19:14;1.13;;;0.60;;
23206;SDS011;11773;52.570;13.052;2023-04-24T05:21:43;0.50;;;0.50;;
23206;SDS011;11773;52.570;13.052;2023-04-24T05:24:13;0.60;;;0.60;;
23206;SDS011;11773;52.570;13.052;2023-04-24T05:26:42;0.60;;;0.60;;
23206;SDS011;11773;52.570;13.052;2023-04-24T05:29:12;0.50;;;0.50;;
23206;SDS011;11773;52.570;13.052;2023-04-24T05:31:42;0.60;;;0.60;;
23206;SDS011;11773;52.570;13.052;2023-04-24T05:34:11;0.47;;;0.47;;
23206;SDS011;11773;52.570;13.052;2023-04-24T05:36:43;0.70;;;0.70;;
23206;SDS011;11773;52.570;13.052;2023-04-24T05:39:13;0.77;;;0.60;;
23206;SDS011;11773;52.570;13.052;2023-04-24T05:41:43;0.57;;;0.57;;
23206;SDS011;11773;52.570;13.052;2023-04-24T05:44:12;0.60;;;0.60;;
23206;SDS011;11773;52.570;13.052;2023-04-24T05:46:42;0.97;;;0.70;;
23206;SDS011;11773;52.570;13.052;2023-04-24T05:49:12;0.87;;;0.77;;
23206;SDS011;11773;52.570;13.052;2023-04-24T05:51:41;0.60;;;0.60;;
23206;SDS011;11773;52.570;13.052;2023-04-24T05:54:11;0.47;;;0.47;;
23206;SDS011;11773;52.570;13.052;2023-04-24T05:56:40;0.57;;;0.57;;
23206;SDS011;11773;52.570;13.052;2023-04-24T05:59:10;0.63;;;0.63;;
23206;SDS011;11773;52.570;13.052;2023-04-24T06:01:39;0.50;;;0.50;;
23206;SDS011;11773;52.570;13.052;2023-04-24T06:04:09;0.43;;;0.40;;
23206;SDS011;11773;52.570;13.052;2023-04-24T06:06:41;0.70;;;0.70;;
23206;SDS011;11773;52.570;13.052;2023-04-24T06:09:10;0.57;;;0.53;;
23206;SDS011;11773;52.570;13.052;2023-04-24T06:11:40;0.53;;;0.50;;
23206;SDS011;11773;52.570;13.052;2023-04-24T06:14:09;0.83;;;0.67;;
23206;SDS011;11773;52.570;13.052;2023-04-24T06:16:40;0.53;;;0.53;;
23206;SDS011;11773;52.570;13.052;2023-04-24T06:19:11;0.50;;;0.50;;
23206;SDS011;11773;52.570;13.052;2023-04-24T06:21:40;0.60;;;0.60;;
23206;SDS011;11773;52.570;13.052;2023-04-24T06:24:10;0.40;;;0.40;;
23206;SDS011;11773;52.570;13.052;2023-04-24T06:26:41;0.37;;;0.37;;
23206;SDS011;11773;52.570;13.052;2023-04-24T06:29:10;0.50;;;0.50;;
23206;SDS011;11773;52.570;13.052;2023-04-24T06:31:40;0.47;;;0.47;;
23206;SDS011;11773;52.570;13.052;2023-04-24T06:34:09;0.50;;;0.50;;
23206;SDS011;11773;52.570;13.052;2023-04-24T06:36:39;0.50;;;0.50;;
23206;SDS011;11773;52.570;13.052;2023-04-24T06:39:09;0.60;;;0.40;;
23206;SDS011;11773;52.570;13.052;2023-04-24T06:41:39;0.60;;;0.60;;
23206;SDS011;11773;52.570;13.052;2023-04-24T06:44:08;0.70;;;0.70;;
23206;SDS011;11773;52.570;13.052;2023-04-24T06:46:38;0.80;;;0.80;;
23206;SDS011;11773;52.570;13.052;2023-04-24T06:49:07;0.63;;;0.63;;
23206;SDS011;11773;52.570;13.052;2023-04-24T06:51:37;0.50;;;0.40;;
23206;SDS011;11773;52.570;13.052;2023-04-24T06:54:07;0.50;;;0.50;;
23206;SDS011;11773;52.570;13.052;2023-04-24T06:56:36;0.53;;;0.53;;
23206;SDS011;11773;52.570;13.052;2023-04-24T06:59:06;0.40;;;0.40;;
23206;SDS011;11773;52.570;13.052;2023-04-24T07:01:35;0.67;;;0.67;;
23206;SDS011;11773;52.570;13.052;2023-04-24T07:04:05;0.60;;;0.60;;
23206;SDS011;11773;52.570;13.052;2023-04-24T07:06:35;0.60;;;0.60;;
23206;SDS011;11773;52.570;13.052;2023-04-24T07:09:06;0.60;;;0.60;;
23206;SDS011;11773;52.570;13.052;2023-04-24T07:11:36;0.80;;;0.70;;
23206;SDS011;11773;52.570;13.052;2023-04-24T07:14:07;1.27;;;0.70;;
23206;SDS011;11773;52.570;13.052;2023-04-24T07:16:37;0.63;;;0.63;;
23206;SDS011;11773;52.570;13.052;2023-04-24T07:19:07;0.93;;;0.67;;
23206;SDS011;11773;52.570;13.052;2023-04-24T07:21:37;0.60;;;0.60;;
23206;SDS011;11773;52.570;13.052;2023-04-24T07:24:06;0.40;;;0.40;;
23206;SDS011;11773;52.570;13.052;2023-04-24T07:26:39;0.50;;;0.50;;
23206;SDS011;11773;52.570;13.052;2023-04-24T07:29:09;0.40;;;0.40;;
23206;SDS011;11773;52.570;13.052;2023-04-24T07:31:39;0.40;;;0.40;;
23206;SDS011;11773;52.570;13.052;2023-04-24T07:34:08;0.47;;;0.40;;
23206;SDS011;11773;52.570;13.052;2023-04-24T07:36:38;0.53;;;0.53;;
23206;SDS011;11773;52.570;13.052;2023-04-24T07:39:09;0.50;;;0.50;;
23206;SDS011;11773;52.570;13.052;2023-04-24T07:41:39;0.60;;;0.53;;
23206;SDS011;11773;52.570;13.052;2023-04-24T07:44:08;0.60;;;0.60;;
23206;SDS011;11773;52.570;13.052;2023-04-24T07:46:38;0.50;;;0.50;;
23206;SDS011;11773;52.570;13.052;2023-04-24T07:49:08;0.30;;;0.30;;
23206;SDS011;11773;52.570;13.052;2023-04-24T07:51:40;0.30;;;0.30;;
23206;SDS011;11773;52.570;13.052;2023-04-24T07:54:09;0.50;;;0.43;;
23206;SDS011;11773;52.570;13.052;2023-04-24T07:56:40;0.50;;;0.50;;
23206;SDS011;11773;52.570;13.052;2023-04-24T07:59:11;0.40;;;0.40;;
23206;SDS011;11773;52.570;13.052;2023-04-24T08:01:40;0.50;;;0.50;;
23206;SDS011;11773;52.570;13.052;2023-04-24T08:04:10;0.20;;;0.20;;
23206;SDS011;11773;52.570;13.052;2023-04-24T08:06:39;0.23;;;0.20;;
23206;SDS011;11773;52.570;13.052;2023-04-24T08:09:09;0.40;;;0.40;;
23206;SDS011;11773;52.570;13.052;2023-04-24T08:11:39;0.40;;;0.40;;
23206;SDS011;11773;52.570;13.052;2023-04-24T08:14:08;0.40;;;0.40;;
23206;SDS011;11773;52.570;13.052;2023-04-24T08:16:39;0.40;;;0.40;;
23206;SDS011;11773;52.570;13.052;2023-04-24T08:19:10;0.30;;;0.30;;
23206;SDS011;11773;52.570;13.052;2023-04-24T08:21:39;0.30;;;0.30;;
23206;SDS011;11773;52.570;13.052;2023-04-24T08:24:09;0.43;;;0.33;;
23206;SDS011;11773;52.570;13.052;2023-04-24T08:26:39;0.30;;;0.30;;
23206;SDS011;11773;52.570;13.052;2023-04-24T08:29:08;0.30;;;0.30;;
23206;SDS011;11773;52.570;13.052;2023-04-24T08:31:38;0.30;;;0.30;;
23206;SDS011;11773;52.570;13.052;2023-04-24T08:34:08;0.30;;;0.30;;
23206;SDS011;11773;52.570;13.052;2023-04-24T08:36:38;0.30;;;0.30;;
23206;SDS011;11773;52.570;13.052;2023-04-24T08:39:10;0.27;;;0.20;;
23206;SDS011;11773;52.570;13.052;2023-04-24T08:41:41;0.30;;;0.30;;
23206;SDS011;11773;52.570;13.052;2023-04-24T08:44:12;0.40;;;0.30;;
23206;SDS011;11773;52.570;13.052;2023-04-24T08:46:43;0.20;;;0.20;;
23206;SDS011;11773;52.570;13.052;2023-04-24T08:49:15;1.10;;;0.30;;
23206;SDS011;11773;52.570;13.052;2023-04-24T08:51:46;0.30;;;0.30;;
23206;SDS011;11773;52.570;13.052;2023-04-24T08:54:18;0.40;;;0.33;;
23206;SDS011;11773;52.570;13.052;2023-04-24T08:56:49;0.33;;;0.33;;
23206;SDS011;11773;52.570;13.052;2023-04-24T08:59:21;0.40;;;0.40;;
23206;SDS011;11773;52.570;13.052;2023-04-24T09:01:51;0.20;;;0.20;;
23206;SDS011;11773;52.570;13.052;2023-04-24T09:04:23;0.40;;;0.40;;
23206;SDS011;11773;52.570;13.052;2023-04-24T09:06:55;0.30;;;0.30;;
23206;SDS011;11773;52.570;13.052;2023-04-24T09:09:26;1.23;;;0.33;;
23206;SDS011;11773;52.570;13.052;2023-04-24T09:12:00;0.30;;;0.30;;
23206;SDS011;11773;52.570;13.052;2023-04-24T09:14:30;0.60;;;0.60;;
23206;SDS011;11773;52.570;13.052;2023-04-24T09:17:03;0.40;;;0.40;;
23206;SDS011;11773;52.570;13.052;2023-04-24T09:19:33;0.27;;;0.27;;
23206;SDS011;11773;52.570;13.052;2023-04-24T09:22:06;0.37;;;0.30;;
23206;SDS011;11773;52.570;13.052;2023-04-24T09:24:38;0.30;;;0.30;;
23206;SDS011;11773;52.570;13.052;2023-04-24T09:27:10;0.40;;;0.40;;
23206;SDS011;11773;52.570;13.052;2023-04-24T09:29:52;0.30;;;0.30;;
23206;SDS011;11773;52.570;13.052;2023-04-24T09:32:24;0.40;;;0.40;;
23206;SDS011;11773;52.570;13.052;2023-04-24T09:35:10;0.37;;;0.37;;
23206;SDS011;11773;52.570;13.052;2023-04-24T09:37:43;0.23;;;0.23;;
23206;SDS011;11773;52.570;13.052;2023-04-24T09:40:12;0.30;;;0.30;;
23206;SDS011;11773;52.570;13.052;2023-04-24T09:42:53;0.93;;;0.57;;
23206;SDS011;11773;52.570;13.052;2023-04-24T09:45:35;0.33;;;0.33;;
23206;SDS011;11773;52.570;13.052;2023-04-24T09:48:10;0.40;;;0.40;;
23206;SDS011;11773;52.570;13.052;2023-04-24T09:50:39;0.60;;;0.50;;
23206;SDS011;11773;52.570;13.052;2023-04-24T09:53:14;0.30;;;0.30;;
23206;SDS011;11773;52.570;13.052;2023-04-24T09:55:48;0.30;;;0.30;;
23206;SDS011;11773;52.570;13.052;2023-04-24T09:58:15;0.30;;;0.30;;
23206;SDS011;11773;52.570;13.052;2023-04-24T10:00:45;0.20;;;0.20;;
23206;SDS011;11773;52.570;13.052;2023-04-24T10:03:15;0.40;;;0.40;;
23206;SDS011;11773;52.570;13.052;2023-04-24T10:05:46;0.40;;;0.40;;
23206;SDS011;11773;52.570;13.052;2023-04-24T10:08:16;0.40;;;0.40;;
23206;SDS011;11773;52.570;13.052;2023-04-24T10:10:45;0.20;;;0.20;;
23206;SDS011;11773;52.570;13.052;2023-04-24T10:13:15;0.43;;;0.43;;
23206;SDS011;11773;52.570;13.052;2023-04-24T10:15:45;0.27;;;0.27;;
23206;SDS011;11773;52.570;13.052;2023-04-24T10:18:16;0.30;;;0.30;;
23206;SDS011;11773;52.570;13.052;2023-04-24T10:20:48;0.30;;;0.30;;
23206;SDS011;11773;52.570;13.052;2023-04-24T10:23:18;0.83;;;0.40;;
23206;SDS011;11773;52.570;13.052;2023-04-24T10:25:48;0.30;;;0.30;;
23206;SDS011;11773;52.570;13.052;2023-04-24T10:28:20;0.40;;;0.40;;
23206;SDS011;11773;52.570;13.052;2023-04-24T10:30:50;0.30;;;0.30;;
23206;SDS011;11773;52.570;13.052;2023-04-24T10:33:22;0.20;;;0.20;;
23206;SDS011;11773;52.570;13.052;2023-04-24T10:35:53;0.20;;;0.20;;
23206;SDS011;11773;52.570;13.052;2023-04-24T10:38:25;0.53;;;0.40;;
23206;SDS011;11773;52.570;13.052;2023-04-24T10:41:08;0.30;;;0.30;;
23206;SDS011;11773;52.570;13.052;2023-04-24T10:43:47;0.20;;;0.20;;
23206;SDS011;11773;52.570;13.052;2023-04-24T10:46:21;0.43;;;0.40;;
23206;SDS011;11773;52.570;13.052;2023-04-24T10:48:53;0.30;;;0.30;;
23206;SDS011;11773;52.570;13.052;2023-04-24T10:51:23;0.20;;;0.20;;
23206;SDS011;11773;52.570;13.052;2023-04-24T10:53:55;0.30;;;0.23;;
23206;SDS011;11773;52.570;13.052;2023-04-24T10:56:27;0.23;;;0.23;;
23206;SDS011;11773;52.570;13.052;2023-04-24T10:58:56;0.20;;;0.20;;
23206;SDS011;11773;52.570;13.052;2023-04-24T11:01:28;1.50;;;0.50;;
23206;SDS011;11773;52.570;13.052;2023-04-24T11:04:03;0.13;;;0.13;;
23206;SDS011;11773;52.570;13.052;2023-04-24T11:06:33;0.37;;;0.23;;
23206;SDS011;11773;52.570;13.052;2023-04-24T11:09:11;0.40;;;0.30;;
23206;SDS011;11773;52.570;13.052;2023-04-24T11:11:44;0.20;;;0.20;;
23206;SDS011;11773;52.570;13.052;2023-04-24T11:14:15;0.40;;;0.30;;
23206;SDS011;11773;52.570;13.052;2023-04-24T11:16:50;0.30;;;0.27;;
23206;SDS011;11773;52.570;13.052;2023-04-24T11:19:24;0.30;;;0.30;;
23206;SDS011;11773;52.570;13.052;2023-04-24T11:21:57;0.30;;;0.30;;
23206;SDS011;11773;52.570;13.052;2023-04-24T11:27:13;0.30;;;0.30;;
23206;SDS011;11773;52.570;13.052;2023-04-24T11:29:47;0.37;;;0.37;;
23206;SDS011;11773;52.570;13.052;2023-04-24T11:32:28;0.27;;;0.23;;
23206;SDS011;11773;52.570;13.052;2023-04-24T11:35:13;0.20;;;0.20;;
23206;SDS011;11773;52.570;13.052;2023-04-24T11:37:51;0.30;;;0.30;;
23206;SDS011;11773;52.570;13.052;2023-04-24T11:40:24;0.20;;;0.20;;
23206;SDS011;11773;52.570;13.052;2023-04-24T11:42:53;0.20;;;0.20;;
23206;SDS011;11773;52.570;13.052;2023-04-24T11:45:24;0.30;;;0.30;;
23206;SDS011;11773;52.570;13.052;2023-04-24T11:47:57;0.53;;;0.30;;
23206;SDS011;11773;52.570;13.052;2023-04-24T11:50:26;0.30;;;0.30;;
23206;SDS011;11773;52.570;13.052;2023-04-24T11:52:56;0.20;;;0.20;;
23206;SDS011;11773;52.570;13.052;2023-04-24T11:55:28;0.20;;;0.20;;
23206;SDS011;11773;52.570;13.052;2023-04-24T11:57:58;0.30;;;0.30;;
23206;SDS011;11773;52.570;13.052;2023-04-24T12:00:29;0.47;;;0.40;;
23206;SDS011;11773;52.570;13.052;2023-04-24T12:03:08;0.20;;;0.20;;
23206;SDS011;11773;52.570;13.052;2023-04-24T12:05:39;0.80;;;0.30;;
23206;SDS011;11773;52.570;13.052;2023-04-24T12:08:09;0.50;;;0.20;;
23206;SDS011;11773;52.570;13.052;2023-04-24T12:10:39;0.30;;;0.30;;
23206;SDS011;11773;52.570;13.052;2023-04-24T12:13:08;0.20;;;0.20;;
23206;SDS011;11773;52.570;13.052;2023-04-24T12:15:39;0.20;;;0.20;;
23206;SDS011;11773;52.570;13.052;2023-04-24T12:18:11;0.30;;;0.30;;
23206;SDS011;11773;52.570;13.052;2023-04-24T12:20:43;0.20;;;0.20;;
23206;SDS011;11773;52.570;13.052;2023-04-24T12:23:13;0.10;;;0.10;;
23206;SDS011;11773;52.570;13.052;2023-04-24T12:25:42;0.30;;;0.30;;
23206;SDS011;11773;52.570;13.052;2023-04-24T12:28:12;0.27;;;0.27;;
23206;SDS011;11773;52.570;13.052;2023-04-24T12:30:48;0.20;;;0.20;;
23206;SDS011;11773;52.570;13.052;2023-04-24T12:33:24;0.37;;;0.37;;
23206;SDS011;11773;52.570;13.052;2023-04-24T12:35:52;0.23;;;0.23;;
23206;SDS011;11773;52.570;13.052;2023-04-24T12:38:24;0.30;;;0.30;;
23206;SDS011;11773;52.570;13.052;2023-04-24T12:41:03;0.25;;;0.25;;
23206;SDS011;11773;52.570;13.052;2023-04-24T12:43:35;0.33;;;0.30;;
23206;SDS011;11773;52.570;13.052;2023-04-24T12:46:05;0.50;;;0.50;;
23206;SDS011;11773;52.570;13.052;2023-04-24T12:48:35;0.30;;;0.30;;
23206;SDS011;11773;52.570;13.052;2023-04-24T12:51:05;0.30;;;0.30;;
23206;SDS011;11773;52.570;13.052;2023-04-24T12:53:35;0.43;;;0.43;;
23206;SDS011;11773;52.570;13.052;2023-04-24T12:56:04;0.40;;;0.40;;
23206;SDS011;11773;52.570;13.052;2023-04-24T12:58:34;0.50;;;0.50;;
23206;SDS011;11773;52.570;13.052;2023-04-24T13:01:03;0.33;;;0.33;;
23206;SDS011;11773;52.570;13.052;2023-04-24T13:03:33;0.50;;;0.50;;
23206;SDS011;11773;52.570;13.052;2023-04-24T13:06:03;0.60;;;0.60;;
23206;SDS011;11773;52.570;13.052;2023-04-24T13:08:32;0.40;;;0.30;;
23206;SDS011;11773;52.570;13.052;2023-04-24T13:11:02;0.20;;;0.20;;
23206;SDS011;11773;52.570;13.052;2023-04-24T13:13:31;0.40;;;0.40;;
23206;SDS011;11773;52.570;13.052;2023-04-24T13:16:01;0.37;;;0.37;;
23206;SDS011;11773;52.570;13.052;2023-04-24T13:18:30;0.40;;;0.40;;
23206;SDS011;11773;52.570;13.052;2023-04-24T13:21:00;0.30;;;0.30;;
23206;SDS011;11773;52.570;13.052;2023-04-24T13:23:30;0.40;;;0.40;;
23206;SDS011;11773;52.570;13.052;2023-04-24T13:25:59;0.60;;;0.40;;
23206;SDS011;11773;52.570;13.052;2023-04-24T13:28:29;0.30;;;0.30;;
23206;SDS011;11773;52.570;13.052;2023-04-24T13:30:58;0.40;;;0.40;;
23206;SDS011;11773;52.570;13.052;2023-04-24T13:33:28;0.40;;;0.40;;
23206;SDS011;11773;52.570;13.052;2023-04-24T13:35:58;0.43;;;0.43;;
23206;SDS011;11773;52.570;13.052;2023-04-24T13:38:27;0.30;;;0.30;;
23206;SDS011;11773;52.570;13.052;2023-04-24T13:40:57;0.50;;;0.50;;
23206;SDS011;11773;52.570;13.052;2023-04-24T13:43:26;0.47;;;0.47;;
23206;SDS011;11773;52.570;13.052;2023-04-24T13:45:56;0.30;;;0.30;;
23206;SDS011;11773;52.570;13.052;2023-04-24T13:48:28;0.30;;;0.30;;
23206;SDS011;11773;52.570;13.052;2023-04-24T13:50:58;0.40;;;0.40;;
23206;SDS011;11773;52.570;13.052;2023-04-24T13:53:27;0.50;;;0.50;;
23206;SDS011;11773;52.570;13.052;2023-04-24T13:55:57;0.70;;;0.50;;
23206;SDS011;11773;52.570;13.052;2023-04-24T13:58:26;0.30;;;0.30;;
23206;SDS011;11773;52.570;13.052;2023-04-24T14:00:56;0.40;;;0.40;;
23206;SDS011;11773;52.570;13.052;2023-04-24T14:03:26;0.50;;;0.50;;
23206;SDS011;11773;52.570;13.052;2023-04-24T14:05:55;0.40;;;0.40;;
23206;SDS011;11773;52.570;13.052;2023-04-24T14:08:25;0.50;;;0.50;;
23206;SDS011;11773;52.570;13.052;2023-04-24T14:10:54;0.40;;;0.40;;
23206;SDS011;11773;52.570;13.052;2023-04-24T14:13:24;0.53;;;0.53;;
23206;SDS011;11773;52.570;13.052;2023-04-24T14:15:54;0.50;;;0.50;;
23206;SDS011;11773;52.570;13.052;2023-04-24T14:18:24;0.57;;;0.40;;
23206;SDS011;11773;52.570;13.052;2023-04-24T14:20:53;0.60;;;0.60;;
23206;SDS011;11773;52.570;13.052;2023-04-24T14:23:23;0.67;;;0.60;;
23206;SDS011;11773;52.570;13.052;2023-04-24T14:25:53;0.70;;;0.70;;
23206;SDS011;11773;52.570;13.052;2023-04-24T14:28:23;0.80;;;0.80;;
23206;SDS011;11773;52.570;13.052;2023-04-24T14:30:53;0.50;;;0.50;;
23206;SDS011;11773;52.570;13.052;2023-04-24T14:33:23;0.50;;;0.50;;
23206;SDS011;11773;52.570;13.052;2023-04-24T14:35:52;0.50;;;0.50;;
23206;SDS011;11773;52.570;13.052;2023-04-24T14:38:22;0.60;;;0.60;;
23206;SDS011;11773;52.570;13.052;2023-04-24T14:40:52;0.40;;;0.40;;
23206;SDS011;11773;52.570;13.052;2023-04-24T14:43:23;0.60;;;0.50;;
23206;SDS011;11773;52.570;13.052;2023-04-24T14:45:52;0.50;;;0.50;;
23206;SDS011;11773;52.570;13.052;2023-04-24T14:48:22;0.53;;;0.53;;
23206;SDS011;11773;52.570;13.052;2023-04-24T14:50:51;0.73;;;0.63;;
23206;SDS011;11773;52.570;13.052;2023-04-24T14:53:21;0.57;;;0.57;;
23206;SDS011;11773;52.570;13.052;2023-04-24T14:55:50;0.63;;;0.63;;